Pine Village, Indiana
Current Conditions -  °F | °C
As of 11:35 AM on Tuesday 21 Oct 2014 (Local Time) from KLAF Reporting Station
Broken Clouds Broken Clouds  
Wind Chill: 52°   Ceiling: 4800
Heat Index: 52°   Visibility: 10mi
Dew Point: 41°   Wind: 17mph
Humidity: 66%   Direction: 360°N
Pressure: 30.11"   Gusts: 22mph
Location:  40.45°N, 87.25°W
Report Text: KLAF 211535Z 36015G19KT 10SM SCT025 BKN048 11/05 A3011 RMK AO2 T01110050
Loading
Personal Weather Stations






























Interactive Weather Map
Tropical Storm Tracking
New forecast layout! Learn more

10-Day Weather Forecast

Advertisements
Track Severe Weather on mobile